sensor_id;sensor_type;location;lat;lon;timestamp;P1;durP1;ratioP1;P2;durP2;ratioP2
65715;SDS011;63484;52.054;8.518;2023-02-16T00:00:45;28.97;;;11.87;;
65715;SDS011;63484;52.054;8.518;2023-02-16T00:05:48;31.90;;;12.40;;
65715;SDS011;63484;52.054;8.518;2023-02-16T00:10:51;29.17;;;12.37;;
65715;SDS011;63484;52.054;8.518;2023-02-16T00:16:11;31.37;;;12.60;;
65715;SDS011;63484;52.054;8.518;2023-02-16T00:26:18;31.33;;;13.10;;
65715;SDS011;63484;52.054;8.518;2023-02-16T00:31:22;33.60;;;12.50;;
65715;SDS011;63484;52.054;8.518;2023-02-16T00:36:26;31.67;;;12.13;;
65715;SDS011;63484;52.054;8.518;2023-02-16T00:41:28;34.67;;;14.17;;
65715;SDS011;63484;52.054;8.518;2023-02-16T00:46:48;29.77;;;12.63;;
65715;SDS011;63484;52.054;8.518;2023-02-16T00:51:49;33.93;;;13.40;;
65715;SDS011;63484;52.054;8.518;2023-02-16T00:56:52;34.53;;;13.20;;
65715;SDS011;63484;52.054;8.518;2023-02-16T01:01:53;35.97;;;13.87;;
65715;SDS011;63484;52.054;8.518;2023-02-16T01:07:05;32.10;;;13.53;;
65715;SDS011;63484;52.054;8.518;2023-02-16T01:12:30;32.70;;;13.60;;
65715;SDS011;63484;52.054;8.518;2023-02-16T01:17:31;30.37;;;12.43;;
65715;SDS011;63484;52.054;8.518;2023-02-16T01:22:33;38.33;;;15.03;;
65715;SDS011;63484;52.054;8.518;2023-02-16T01:27:36;36.37;;;14.17;;
65715;SDS011;63484;52.054;8.518;2023-02-16T01:32:38;38.33;;;14.53;;
65715;SDS011;63484;52.054;8.518;2023-02-16T01:37:41;34.93;;;14.80;;
65715;SDS011;63484;52.054;8.518;2023-02-16T01:42:46;37.53;;;15.13;;
65715;SDS011;63484;52.054;8.518;2023-02-16T01:47:53;38.97;;;15.73;;
65715;SDS011;63484;52.054;8.518;2023-02-16T01:52:59;38.60;;;15.07;;
65715;SDS011;63484;52.054;8.518;2023-02-16T01:58:06;32.03;;;13.73;;
65715;SDS011;63484;52.054;8.518;2023-02-16T02:03:15;40.65;;;15.48;;
65715;SDS011;63484;52.054;8.518;2023-02-16T02:08:39;34.30;;;14.70;;
65715;SDS011;63484;52.054;8.518;2023-02-16T02:13:46;30.90;;;13.93;;
65715;SDS011;63484;52.054;8.518;2023-02-16T02:18:53;39.05;;;15.50;;
65715;SDS011;63484;52.054;8.518;2023-02-16T02:24:01;38.10;;;14.95;;
65715;SDS011;63484;52.054;8.518;2023-02-16T02:29:29;36.63;;;15.10;;
65715;SDS011;63484;52.054;8.518;2023-02-16T02:35:02;34.88;;;14.25;;
65715;SDS011;63484;52.054;8.518;2023-02-16T02:40:19;38.43;;;15.07;;
65715;SDS011;63484;52.054;8.518;2023-02-16T02:45:31;42.50;;;16.73;;
65715;SDS011;63484;52.054;8.518;2023-02-16T02:50:38;43.10;;;16.67;;
65715;SDS011;63484;52.054;8.518;2023-02-16T02:56:07;40.75;;;15.70;;
65715;SDS011;63484;52.054;8.518;2023-02-16T03:01:31;37.58;;;15.30;;
65715;SDS011;63484;52.054;8.518;2023-02-16T03:06:37;43.35;;;16.83;;
65715;SDS011;63484;52.054;8.518;2023-02-16T03:11:41;38.47;;;15.82;;
65715;SDS011;63484;52.054;8.518;2023-02-16T03:17:03;38.20;;;15.77;;
65715;SDS011;63484;52.054;8.518;2023-02-16T03:22:27;37.65;;;15.70;;
65715;SDS011;63484;52.054;8.518;2023-02-16T03:27:49;40.00;;;16.13;;
65715;SDS011;63484;52.054;8.518;2023-02-16T03:33:10;43.05;;;16.83;;
65715;SDS011;63484;52.054;8.518;2023-02-16T03:38:12;38.53;;;15.60;;
65715;SDS011;63484;52.054;8.518;2023-02-16T03:43:14;36.05;;;16.35;;
65715;SDS011;63484;52.054;8.518;2023-02-16T03:48:16;37.47;;;16.70;;
65715;SDS011;63484;52.054;8.518;2023-02-16T03:53:18;42.03;;;16.60;;
65715;SDS011;63484;52.054;8.518;2023-02-16T03:58:20;41.35;;;15.82;;
65715;SDS011;63484;52.054;8.518;2023-02-16T04:03:24;37.13;;;16.80;;
65715;SDS011;63484;52.054;8.518;2023-02-16T04:08:26;43.17;;;18.70;;
65715;SDS011;63484;52.054;8.518;2023-02-16T04:13:28;40.38;;;16.48;;
65715;SDS011;63484;52.054;8.518;2023-02-16T04:18:30;46.90;;;16.45;;
65715;SDS011;63484;52.054;8.518;2023-02-16T04:23:32;40.08;;;16.27;;
65715;SDS011;63484;52.054;8.518;2023-02-16T04:28:33;36.53;;;15.63;;
65715;SDS011;63484;52.054;8.518;2023-02-16T04:33:36;36.25;;;16.30;;
65715;SDS011;63484;52.054;8.518;2023-02-16T04:38:37;35.97;;;15.82;;
65715;SDS011;63484;52.054;8.518;2023-02-16T04:43:39;36.85;;;15.73;;
65715;SDS011;63484;52.054;8.518;2023-02-16T04:48:42;36.80;;;17.08;;
65715;SDS011;63484;52.054;8.518;2023-02-16T04:53:43;40.40;;;16.38;;
65715;SDS011;63484;52.054;8.518;2023-02-16T04:58:45;38.42;;;16.02;;
65715;SDS011;63484;52.054;8.518;2023-02-16T05:03:48;38.92;;;16.25;;
65715;SDS011;63484;52.054;8.518;2023-02-16T05:08:49;40.77;;;17.10;;
65715;SDS011;63484;52.054;8.518;2023-02-16T05:13:50;38.88;;;15.98;;
65715;SDS011;63484;52.054;8.518;2023-02-16T05:19:11;38.00;;;16.67;;
65715;SDS011;63484;52.054;8.518;2023-02-16T05:24:13;38.73;;;16.40;;
65715;SDS011;63484;52.054;8.518;2023-02-16T05:29:14;33.70;;;15.57;;
65715;SDS011;63484;52.054;8.518;2023-02-16T05:34:17;39.33;;;17.05;;
65715;SDS011;63484;52.054;8.518;2023-02-16T05:39:19;37.63;;;16.10;;
65715;SDS011;63484;52.054;8.518;2023-02-16T05:44:21;41.42;;;16.63;;
65715;SDS011;63484;52.054;8.518;2023-02-16T05:49:23;35.63;;;16.10;;
65715;SDS011;63484;52.054;8.518;2023-02-16T05:54:25;39.53;;;16.83;;
65715;SDS011;63484;52.054;8.518;2023-02-16T05:59:27;43.80;;;17.83;;
65715;SDS011;63484;52.054;8.518;2023-02-16T06:04:30;40.90;;;17.00;;
65715;SDS011;63484;52.054;8.518;2023-02-16T06:09:31;40.17;;;16.92;;
65715;SDS011;63484;52.054;8.518;2023-02-16T06:14:33;41.92;;;17.85;;
65715;SDS011;63484;52.054;8.518;2023-02-16T06:19:36;44.47;;;17.83;;
65715;SDS011;63484;52.054;8.518;2023-02-16T06:24:37;41.10;;;18.58;;
65715;SDS011;63484;52.054;8.518;2023-02-16T06:29:39;42.78;;;18.58;;
65715;SDS011;63484;52.054;8.518;2023-02-16T06:34:42;45.78;;;18.27;;
65715;SDS011;63484;52.054;8.518;2023-02-16T06:39:43;43.27;;;17.27;;
65715;SDS011;63484;52.054;8.518;2023-02-16T06:44:45;45.42;;;18.15;;
65715;SDS011;63484;52.054;8.518;2023-02-16T06:49:48;53.05;;;20.55;;
65715;SDS011;63484;52.054;8.518;2023-02-16T06:54:50;44.00;;;18.77;;
65715;SDS011;63484;52.054;8.518;2023-02-16T06:59:52;47.65;;;17.77;;
65715;SDS011;63484;52.054;8.518;2023-02-16T07:04:56;38.75;;;17.02;;
65715;SDS011;63484;52.054;8.518;2023-02-16T07:09:58;33.15;;;15.88;;
65715;SDS011;63484;52.054;8.518;2023-02-16T07:14:59;43.78;;;17.95;;
65715;SDS011;63484;52.054;8.518;2023-02-16T07:20:02;42.67;;;17.67;;
65715;SDS011;63484;52.054;8.518;2023-02-16T07:25:05;46.67;;;18.50;;
65715;SDS011;63484;52.054;8.518;2023-02-16T07:30:07;43.88;;;17.02;;
65715;SDS011;63484;52.054;8.518;2023-02-16T07:35:11;39.88;;;17.02;;
65715;SDS011;63484;52.054;8.518;2023-02-16T07:40:13;37.87;;;16.37;;
65715;SDS011;63484;52.054;8.518;2023-02-16T07:45:14;35.47;;;15.82;;
65715;SDS011;63484;52.054;8.518;2023-02-16T07:50:17;37.17;;;15.95;;
65715;SDS011;63484;52.054;8.518;2023-02-16T07:55:19;33.03;;;16.60;;
65715;SDS011;63484;52.054;8.518;2023-02-16T08:00:20;36.25;;;16.77;;
65715;SDS011;63484;52.054;8.518;2023-02-16T08:05:24;41.45;;;19.65;;
65715;SDS011;63484;52.054;8.518;2023-02-16T08:10:25;36.95;;;15.82;;
65715;SDS011;63484;52.054;8.518;2023-02-16T08:15:27;37.10;;;16.83;;
65715;SDS011;63484;52.054;8.518;2023-02-16T08:20:29;33.83;;;15.63;;
65715;SDS011;63484;52.054;8.518;2023-02-16T08:25:31;36.25;;;15.43;;
65715;SDS011;63484;52.054;8.518;2023-02-16T08:30:33;36.05;;;16.30;;
65715;SDS011;63484;52.054;8.518;2023-02-16T08:35:37;36.28;;;15.93;;
65715;SDS011;63484;52.054;8.518;2023-02-16T08:40:39;34.05;;;15.35;;
65715;SDS011;63484;52.054;8.518;2023-02-16T08:45:42;36.90;;;15.77;;
65715;SDS011;63484;52.054;8.518;2023-02-16T08:50:46;33.88;;;16.17;;
65715;SDS011;63484;52.054;8.518;2023-02-16T08:55:54;37.28;;;15.85;;
65715;SDS011;63484;52.054;8.518;2023-02-16T09:00:56;35.95;;;15.85;;
65715;SDS011;63484;52.054;8.518;2023-02-16T09:05:59;39.95;;;16.30;;
65715;SDS011;63484;52.054;8.518;2023-02-16T09:11:02;36.10;;;15.93;;
65715;SDS011;63484;52.054;8.518;2023-02-16T09:16:06;33.22;;;15.95;;
65715;SDS011;63484;52.054;8.518;2023-02-16T09:21:11;36.10;;;16.15;;
65715;SDS011;63484;52.054;8.518;2023-02-16T09:26:15;36.97;;;16.02;;
65715;SDS011;63484;52.054;8.518;2023-02-16T09:31:19;31.38;;;15.38;;
65715;SDS011;63484;52.054;8.518;2023-02-16T09:36:26;34.97;;;15.95;;
65715;SDS011;63484;52.054;8.518;2023-02-16T09:41:31;38.23;;;15.10;;
65715;SDS011;63484;52.054;8.518;2023-02-16T09:46:41;38.17;;;16.30;;
65715;SDS011;63484;52.054;8.518;2023-02-16T09:51:44;34.17;;;15.20;;
65715;SDS011;63484;52.054;8.518;2023-02-16T09:56:48;32.28;;;15.27;;
65715;SDS011;63484;52.054;8.518;2023-02-16T10:01:55;31.75;;;15.73;;
65715;SDS011;63484;52.054;8.518;2023-02-16T10:07:12;31.60;;;16.50;;
65715;SDS011;63484;52.054;8.518;2023-02-16T10:12:23;33.70;;;15.02;;
65715;SDS011;63484;52.054;8.518;2023-02-16T10:17:30;34.55;;;15.40;;
65715;SDS011;63484;52.054;8.518;2023-02-16T10:22:39;34.53;;;15.48;;
65715;SDS011;63484;52.054;8.518;2023-02-16T10:27:49;34.28;;;14.73;;
65715;SDS011;63484;52.054;8.518;2023-02-16T10:32:56;29.33;;;15.30;;
65715;SDS011;63484;52.054;8.518;2023-02-16T10:38:06;32.90;;;15.40;;
65715;SDS011;63484;52.054;8.518;2023-02-16T10:43:13;34.72;;;15.00;;
65715;SDS011;63484;52.054;8.518;2023-02-16T10:48:18;32.05;;;14.93;;
65715;SDS011;63484;52.054;8.518;2023-02-16T10:53:23;31.58;;;15.95;;
65715;SDS011;63484;52.054;8.518;2023-02-16T10:58:36;40.75;;;16.83;;
65715;SDS011;63484;52.054;8.518;2023-02-16T11:03:43;33.58;;;16.10;;
65715;SDS011;63484;52.054;8.518;2023-02-16T11:08:48;33.20;;;15.48;;
65715;SDS011;63484;52.054;8.518;2023-02-16T11:13:56;32.55;;;15.68;;
65715;SDS011;63484;52.054;8.518;2023-02-16T11:19:00;34.55;;;15.73;;
65715;SDS011;63484;52.054;8.518;2023-02-16T11:24:09;32.30;;;15.02;;
65715;SDS011;63484;52.054;8.518;2023-02-16T11:29:16;31.33;;;14.73;;
65715;SDS011;63484;52.054;8.518;2023-02-16T11:34:23;37.72;;;16.02;;
65715;SDS011;63484;52.054;8.518;2023-02-16T11:39:31;34.55;;;16.45;;
65715;SDS011;63484;52.054;8.518;2023-02-16T11:44:37;32.65;;;15.52;;
65715;SDS011;63484;52.054;8.518;2023-02-16T11:49:43;35.22;;;15.57;;
65715;SDS011;63484;52.054;8.518;2023-02-16T11:54:48;35.15;;;16.30;;
65715;SDS011;63484;52.054;8.518;2023-02-16T11:59:50;30.17;;;15.68;;
65715;SDS011;63484;52.054;8.518;2023-02-16T12:04:55;33.05;;;16.55;;
65715;SDS011;63484;52.054;8.518;2023-02-16T12:10:12;32.65;;;15.95;;
65715;SDS011;63484;52.054;8.518;2023-02-16T12:15:24;33.55;;;16.88;;
65715;SDS011;63484;52.054;8.518;2023-02-16T12:20:34;36.40;;;16.33;;
65715;SDS011;63484;52.054;8.518;2023-02-16T12:25:45;32.70;;;16.00;;
65715;SDS011;63484;52.054;8.518;2023-02-16T12:30:56;37.30;;;15.52;;
65715;SDS011;63484;52.054;8.518;2023-02-16T12:36:18;32.28;;;15.82;;
65715;SDS011;63484;52.054;8.518;2023-02-16T12:41:36;32.78;;;15.50;;
65715;SDS011;63484;52.054;8.518;2023-02-16T12:46:48;31.08;;;15.65;;
65715;SDS011;63484;52.054;8.518;2023-02-16T12:51:56;29.48;;;14.52;;
65715;SDS011;63484;52.054;8.518;2023-02-16T12:57:09;28.88;;;15.13;;
65715;SDS011;63484;52.054;8.518;2023-02-16T13:02:14;29.70;;;15.93;;
65715;SDS011;63484;52.054;8.518;2023-02-16T13:07:24;36.30;;;15.63;;
65715;SDS011;63484;52.054;8.518;2023-02-16T13:12:33;30.38;;;14.80;;
65715;SDS011;63484;52.054;8.518;2023-02-16T13:17:39;33.20;;;16.30;;
65715;SDS011;63484;52.054;8.518;2023-02-16T13:22:47;29.83;;;16.05;;
65715;SDS011;63484;52.054;8.518;2023-02-16T13:28:11;37.67;;;16.30;;
65715;SDS011;63484;52.054;8.518;2023-02-16T13:33:35;27.88;;;15.25;;
65715;SDS011;63484;52.054;8.518;2023-02-16T13:44:19;30.58;;;15.93;;
65715;SDS011;63484;52.054;8.518;2023-02-16T13:49:28;33.70;;;16.50;;
65715;SDS011;63484;52.054;8.518;2023-02-16T13:54:33;30.17;;;14.48;;
65715;SDS011;63484;52.054;8.518;2023-02-16T14:05:17;28.75;;;15.63;;
65715;SDS011;63484;52.054;8.518;2023-02-16T14:10:33;30.35;;;15.13;;
65715;SDS011;63484;52.054;8.518;2023-02-16T14:16:09;36.05;;;15.80;;
65715;SDS011;63484;52.054;8.518;2023-02-16T14:21:17;29.60;;;14.85;;
65715;SDS011;63484;52.054;8.518;2023-02-16T14:26:20;31.58;;;15.07;;
65715;SDS011;63484;52.054;8.518;2023-02-16T14:31:23;30.77;;;14.35;;
65715;SDS011;63484;52.054;8.518;2023-02-16T14:36:27;29.50;;;15.02;;
65715;SDS011;63484;52.054;8.518;2023-02-16T14:41:30;30.90;;;14.38;;
65715;SDS011;63484;52.054;8.518;2023-02-16T14:46:38;41.00;;;20.23;;
65715;SDS011;63484;52.054;8.518;2023-02-16T14:57:22;31.58;;;16.02;;
65715;SDS011;63484;52.054;8.518;2023-02-16T15:02:33;32.10;;;16.13;;
65715;SDS011;63484;52.054;8.518;2023-02-16T15:07:36;37.22;;;16.95;;
65715;SDS011;63484;52.054;8.518;2023-02-16T15:12:38;31.23;;;16.27;;
65715;SDS011;63484;52.054;8.518;2023-02-16T15:17:42;37.17;;;17.90;;
65715;SDS011;63484;52.054;8.518;2023-02-16T15:22:47;33.97;;;17.55;;
65715;SDS011;63484;52.054;8.518;2023-02-16T15:27:53;37.55;;;17.65;;
65715;SDS011;63484;52.054;8.518;2023-02-16T15:33:00;37.80;;;17.70;;
65715;SDS011;63484;52.054;8.518;2023-02-16T15:38:07;36.95;;;18.58;;
65715;SDS011;63484;52.054;8.518;2023-02-16T15:43:25;38.60;;;18.57;;
65715;SDS011;63484;52.054;8.518;2023-02-16T15:48:32;42.40;;;18.70;;
65715;SDS011;63484;52.054;8.518;2023-02-16T15:53:42;35.90;;;18.42;;
65715;SDS011;63484;52.054;8.518;2023-02-16T15:58:47;41.53;;;18.65;;
65715;SDS011;63484;52.054;8.518;2023-02-16T16:03:50;36.13;;;19.25;;
65715;SDS011;63484;52.054;8.518;2023-02-16T16:08:52;37.00;;;18.75;;
65715;SDS011;63484;52.054;8.518;2023-02-16T16:13:53;36.65;;;18.77;;
65715;SDS011;63484;52.054;8.518;2023-02-16T16:19:01;34.55;;;18.75;;
65715;SDS011;63484;52.054;8.518;2023-02-16T16:24:07;40.42;;;18.92;;
65715;SDS011;63484;52.054;8.518;2023-02-16T16:34:31;40.10;;;18.77;;
65715;SDS011;63484;52.054;8.518;2023-02-16T16:39:34;36.65;;;19.38;;
65715;SDS011;63484;52.054;8.518;2023-02-16T16:44:38;45.67;;;19.50;;
65715;SDS011;63484;52.054;8.518;2023-02-16T16:49:47;35.03;;;18.35;;
65715;SDS011;63484;52.054;8.518;2023-02-16T16:54:51;39.45;;;19.15;;
65715;SDS011;63484;52.054;8.518;2023-02-16T16:59:52;38.60;;;18.30;;
65715;SDS011;63484;52.054;8.518;2023-02-16T17:04:56;35.45;;;18.48;;
65715;SDS011;63484;52.054;8.518;2023-02-16T17:09:57;36.80;;;18.50;;
65715;SDS011;63484;52.054;8.518;2023-02-16T17:14:59;37.42;;;18.65;;
65715;SDS011;63484;52.054;8.518;2023-02-16T17:20:05;35.45;;;19.25;;
65715;SDS011;63484;52.054;8.518;2023-02-16T17:25:13;37.10;;;18.55;;
65715;SDS011;63484;52.054;8.518;2023-02-16T17:30:15;37.40;;;19.20;;
65715;SDS011;63484;52.054;8.518;2023-02-16T17:35:18;36.67;;;18.73;;
65715;SDS011;63484;52.054;8.518;2023-02-16T17:40:20;41.20;;;18.80;;
65715;SDS011;63484;52.054;8.518;2023-02-16T17:45:22;39.53;;;19.33;;
65715;SDS011;63484;52.054;8.518;2023-02-16T17:50:25;39.83;;;18.95;;
65715;SDS011;63484;52.054;8.518;2023-02-16T17:55:29;43.25;;;19.30;;
65715;SDS011;63484;52.054;8.518;2023-02-16T18:00:30;38.78;;;18.90;;
65715;SDS011;63484;52.054;8.518;2023-02-16T18:05:33;35.13;;;18.42;;
65715;SDS011;63484;52.054;8.518;2023-02-16T18:10:36;40.03;;;20.42;;
65715;SDS011;63484;52.054;8.518;2023-02-16T18:15:42;39.95;;;19.30;;
65715;SDS011;63484;52.054;8.518;2023-02-16T18:20:47;39.95;;;19.40;;
65715;SDS011;63484;52.054;8.518;2023-02-16T18:25:49;39.50;;;18.87;;
65715;SDS011;63484;52.054;8.518;2023-02-16T18:30:50;41.05;;;19.02;;
65715;SDS011;63484;52.054;8.518;2023-02-16T18:35:54;40.85;;;19.98;;
65715;SDS011;63484;52.054;8.518;2023-02-16T18:40:56;41.25;;;18.30;;
65715;SDS011;63484;52.054;8.518;2023-02-16T18:45:58;36.60;;;18.95;;
65715;SDS011;63484;52.054;8.518;2023-02-16T18:51:03;40.45;;;19.17;;
65715;SDS011;63484;52.054;8.518;2023-02-16T18:56:06;36.55;;;18.85;;
65715;SDS011;63484;52.054;8.518;2023-02-16T19:01:12;36.67;;;18.90;;
65715;SDS011;63484;52.054;8.518;2023-02-16T19:06:17;37.25;;;17.45;;
65715;SDS011;63484;52.054;8.518;2023-02-16T19:11:19;37.67;;;18.45;;
65715;SDS011;63484;52.054;8.518;2023-02-16T19:16:21;32.88;;;17.58;;
65715;SDS011;63484;52.054;8.518;2023-02-16T19:21:24;36.33;;;16.17;;
65715;SDS011;63484;52.054;8.518;2023-02-16T19:26:25;36.90;;;16.45;;
65715;SDS011;63484;52.054;8.518;2023-02-16T19:31:28;30.33;;;15.88;;
65715;SDS011;63484;52.054;8.518;2023-02-16T19:36:32;40.13;;;17.58;;
65715;SDS011;63484;52.054;8.518;2023-02-16T19:41:34;37.35;;;17.73;;
65715;SDS011;63484;52.054;8.518;2023-02-16T19:46:37;35.88;;;18.48;;
65715;SDS011;63484;52.054;8.518;2023-02-16T19:51:40;38.33;;;18.65;;
65715;SDS011;63484;52.054;8.518;2023-02-16T19:56:43;36.38;;;18.58;;
65715;SDS011;63484;52.054;8.518;2023-02-16T20:01:44;38.63;;;18.63;;
65715;SDS011;63484;52.054;8.518;2023-02-16T20:06:47;35.13;;;16.75;;
65715;SDS011;63484;52.054;8.518;2023-02-16T20:11:49;32.95;;;17.05;;
65715;SDS011;63484;52.054;8.518;2023-02-16T20:16:51;31.55;;;16.58;;
65715;SDS011;63484;52.054;8.518;2023-02-16T20:21:54;36.58;;;16.20;;
65715;SDS011;63484;52.054;8.518;2023-02-16T20:26:55;32.80;;;15.68;;
65715;SDS011;63484;52.054;8.518;2023-02-16T20:31:57;31.40;;;15.93;;
65715;SDS011;63484;52.054;8.518;2023-02-16T20:37:00;28.58;;;14.73;;
65715;SDS011;63484;52.054;8.518;2023-02-16T20:42:02;30.55;;;14.48;;
65715;SDS011;63484;52.054;8.518;2023-02-16T20:47:04;31.27;;;14.77;;
65715;SDS011;63484;52.054;8.518;2023-02-16T20:52:08;28.77;;;14.15;;
65715;SDS011;63484;52.054;8.518;2023-02-16T20:57:10;31.70;;;14.32;;
65715;SDS011;63484;52.054;8.518;2023-02-16T21:02:11;23.50;;;13.18;;
65715;SDS011;63484;52.054;8.518;2023-02-16T21:07:14;30.40;;;14.25;;
65715;SDS011;63484;52.054;8.518;2023-02-16T21:12:15;29.20;;;14.70;;
65715;SDS011;63484;52.054;8.518;2023-02-16T21:17:17;33.65;;;16.00;;
65715;SDS011;63484;52.054;8.518;2023-02-16T21:22:20;33.10;;;17.10;;
65715;SDS011;63484;52.054;8.518;2023-02-16T21:27:23;31.52;;;15.90;;
65715;SDS011;63484;52.054;8.518;2023-02-16T21:32:24;32.78;;;15.65;;
65715;SDS011;63484;52.054;8.518;2023-02-16T21:37:27;32.50;;;16.60;;
65715;SDS011;63484;52.054;8.518;2023-02-16T21:42:31;34.25;;;17.23;;
65715;SDS011;63484;52.054;8.518;2023-02-16T21:47:33;37.80;;;17.20;;
65715;SDS011;63484;52.054;8.518;2023-02-16T21:52:53;34.13;;;16.38;;
65715;SDS011;63484;52.054;8.518;2023-02-16T21:57:55;34.03;;;17.27;;
65715;SDS011;63484;52.054;8.518;2023-02-16T22:02:57;34.92;;;16.98;;
65715;SDS011;63484;52.054;8.518;2023-02-16T22:08:00;36.28;;;17.15;;
65715;SDS011;63484;52.054;8.518;2023-02-16T22:13:02;32.10;;;16.97;;
65715;SDS011;63484;52.054;8.518;2023-02-16T22:18:04;34.13;;;16.92;;
65715;SDS011;63484;52.054;8.518;2023-02-16T22:23:07;34.05;;;16.20;;
65715;SDS011;63484;52.054;8.518;2023-02-16T22:28:09;36.30;;;18.58;;
65715;SDS011;63484;52.054;8.518;2023-02-16T22:33:10;40.05;;;18.98;;
65715;SDS011;63484;52.054;8.518;2023-02-16T22:38:13;38.63;;;19.85;;
65715;SDS011;63484;52.054;8.518;2023-02-16T22:43:14;36.95;;;19.83;;
65715;SDS011;63484;52.054;8.518;2023-02-16T22:48:16;36.92;;;19.45;;
65715;SDS011;63484;52.054;8.518;2023-02-16T22:53:19;37.22;;;18.45;;
65715;SDS011;63484;52.054;8.518;2023-02-16T22:58:20;41.53;;;20.88;;
65715;SDS011;63484;52.054;8.518;2023-02-16T23:03:22;37.83;;;20.17;;
65715;SDS011;63484;52.054;8.518;2023-02-16T23:08:25;41.90;;;20.92;;
65715;SDS011;63484;52.054;8.518;2023-02-16T23:13:27;35.80;;;19.48;;
65715;SDS011;63484;52.054;8.518;2023-02-16T23:18:29;44.17;;;20.48;;
65715;SDS011;63484;52.054;8.518;2023-02-16T23:23:32;43.90;;;21.33;;
65715;SDS011;63484;52.054;8.518;2023-02-16T23:28:35;48.50;;;22.33;;
65715;SDS011;63484;52.054;8.518;2023-02-16T23:33:37;42.72;;;21.02;;
65715;SDS011;63484;52.054;8.518;2023-02-16T23:38:40;43.25;;;21.92;;
65715;SDS011;63484;52.054;8.518;2023-02-16T23:43:42;41.63;;;21.50;;
65715;SDS011;63484;52.054;8.518;2023-02-16T23:48:43;44.92;;;21.63;;
65715;SDS011;63484;52.054;8.518;2023-02-16T23:53:46;38.63;;;20.38;;
65715;SDS011;63484;52.054;8.518;2023-02-16T23:58:47;44.25;;;22.58;;
